Greenfield, NH (03047)

9:29 PM EDT on September 25, 2016 (GMT -0400)
| | Change Station
Active Advisory: Frost Advisory

Elev -9999 ft 0.00 °N, 0.00 °E | Updated

Clear
Clear
41 °F
Feels Like 41 °F
N
2
Wind Variable Wind from NNW
Gusts mph

Today
High -- | Low -- °F
--% Chance of Precip.
Yesterday
High -- | Low -- °F
Precip. -- in
Pressure 30.22 in
Visibility 10.0 miles
Clouds Clear
Dew Point 36 °F
Humidity 81%
Rainfall --
Snow Depth Not available.
6:38 AM 6:38 PM
Waning Crescent, 23% visible
METAR KAFN 260052Z AUTO 17004KT 10SM CLR 06/03 A3019 RMK AO2 SLP234 T00560028
Pressure 30.22 in
Visibility 10.0 miles
Clouds Clear
Dew Point 36 °F
Humidity 81%
Rainfall --
Snow Depth Not available.
6:38 AM 6:38 PM
Waning Crescent, 23% visible
METAR KAFN 260052Z AUTO 17004KT 10SM CLR 06/03 A3019 RMK AO2 SLP234 T00560028

10-Day Weather Forecast

Almanac

Astronomy

Sep. 25, 2016 Rise Set
Actual Time
Civil Twilight
Nautical Twilight
Astronomical Twilight
Moon
Length of Visible Light
Length of Day
Tomorrow will be .
, % of the Moon is Illuminated

Today's Extremes

State Highs State Lows

Community

WunderPhotos

Upload Photos

1,941,801 photos uploaded!

WunderBlog® & News

Nearby

Air Quality

  Air Quality AQ Index Pollutant
Not available.

Snow Depth

Station Depth Elevation

Earthquake Activity

City Distance Mag. Time & Date
Minimum magnitude displayed is 2.5.

Coastal Water Temperatures

Place Temperature

Stations

Nearby Weather Stations

Station Location Temp. Windchill Dew Point Humidity Wind Precip. Elev Updated Type
                   

Watches & Warnings

Frost Advisory
Issued: 2:40 PM EDT Sep. 25, 2016 – National Weather Service

... Frost advisory in effect from midnight tonight to 8 am EDT
Monday...

The National Weather Service in gray has issued a frost
advisory... which is in effect from midnight tonight to 8 am EDT
Monday.

* Temperatures... in the 30s.

* Timing... overnight.

* Impacts... frost may damage or kill sensitive vegetation.

Precautionary/preparedness actions...

A frost advisory means that widespread frost is expected.
Sensitive outdoor plants may be killed if left uncovered.